createdAt,value
2022-11-13T00:02:27.620Z,99353.19
2022-11-13T00:05:16.729Z,99345.41
2022-11-13T00:08:02.520Z,99351.13
2022-11-13T00:10:48.656Z,99358.72
2022-11-13T00:13:35.472Z,99352.22
2022-11-13T00:16:22.153Z,99345.25
2022-11-13T00:19:08.668Z,99348.38
2022-11-13T00:21:57.102Z,99347.13
2022-11-13T00:24:43.423Z,99353.19
2022-11-13T00:27:31.581Z,99367.25
2022-11-13T00:30:19.555Z,99361.97
2022-11-13T00:33:06.517Z,99358.22
2022-11-13T00:35:52.381Z,99367.72
2022-11-13T00:38:38.159Z,99371.56
2022-11-13T00:41:29.600Z,99359.38
2022-11-13T00:44:15.774Z,99348.72
2022-11-13T00:47:04.536Z,99356.81
2022-11-13T00:49:50.771Z,99371.41
2022-11-13T00:52:39.515Z,99374.38
2022-11-13T00:55:25.714Z,99371.47
2022-11-13T00:58:12.195Z,99375.91
2022-11-13T01:01:05.218Z,99362.34
2022-11-13T01:03:54.163Z,99376.91
2022-11-13T01:06:40.174Z,99350.25
2022-11-13T01:09:26.612Z,99379.59
2022-11-13T01:12:12.619Z,99361.88
2022-11-13T01:14:58.900Z,99370.84
2022-11-13T01:17:45.122Z,99374.78
2022-11-13T01:20:31.003Z,99368.59
2022-11-13T01:23:17.042Z,99375.28
2022-11-13T01:26:16.346Z,99374.13
2022-11-13T01:29:02.364Z,99370.81
2022-11-13T01:31:48.513Z,99374.28
2022-11-13T01:34:37.215Z,99363.72
2022-11-13T01:37:23.267Z,99373.22
2022-11-13T01:40:10.933Z,99371.91
2022-11-13T01:42:57.132Z,99368.72
2022-11-13T01:45:52.354Z,99358.72
2022-11-13T01:48:43.318Z,99366.13
2022-11-13T01:51:47.571Z,99365.62
2022-11-13T01:54:43.597Z,99362.69
2022-11-13T01:57:33.203Z,99364.69
2022-11-13T02:00:19.295Z,99350.63
2022-11-13T02:03:05.867Z,99361.37
2022-11-13T02:05:52.331Z,99365.16
2022-11-13T02:08:38.741Z,99363.88
2022-11-13T02:11:24.963Z,99365.88
2022-11-13T02:14:12.086Z,99362.53
2022-11-13T02:17:00.552Z,99360.91
2022-11-13T02:19:49.361Z,99369.69
2022-11-13T02:22:38.502Z,99359.91
2022-11-13T02:25:25.806Z,99363.97
2022-11-13T02:28:11.757Z,99365.16
2022-11-13T02:30:57.871Z,99363.06
2022-11-13T02:33:43.911Z,99364.84
2022-11-13T02:36:30.511Z,99358.66
2022-11-13T02:39:16.585Z,99356.28
2022-11-13T02:42:02.658Z,99359.25
2022-11-13T02:44:48.764Z,99360.44
2022-11-13T02:47:34.943Z,99358.81
2022-11-13T02:50:23.716Z,99365.94
2022-11-13T02:53:09.628Z,99360.91
2022-11-13T02:55:58.401Z,99347.34
2022-11-13T02:58:44.485Z,99345.34
2022-11-13T03:01:30.506Z,99357.34
2022-11-13T03:04:16.794Z,99352.47
2022-11-13T03:07:03.026Z,99352.84
2022-11-13T03:09:49.242Z,99349.97
2022-11-13T03:12:35.199Z,99352.13
2022-11-13T03:15:23.937Z,99349.97
2022-11-13T03:18:09.826Z,99357.56
2022-11-13T03:20:55.869Z,99356.19
2022-11-13T03:23:42.892Z,99356.19
2022-11-13T03:26:31.662Z,99342.84
2022-11-13T03:29:17.420Z,99352.84
2022-11-13T03:32:03.658Z,99362.94
2022-11-13T03:34:49.800Z,99363.44
2022-11-13T03:37:35.953Z,99351.38
2022-11-13T03:40:22.328Z,99354.16
2022-11-13T03:43:08.187Z,99360.69
2022-11-13T03:45:54.221Z,99364.12
2022-11-13T03:48:40.329Z,99362.13
2022-11-13T03:51:26.563Z,99362.00
2022-11-13T03:54:12.462Z,99358.91
2022-11-13T03:57:01.487Z,99356.88
2022-11-13T03:59:50.200Z,99369.50
2022-11-13T04:02:36.001Z,99366.84
2022-11-13T04:05:23.097Z,99378.97
2022-11-13T04:08:09.327Z,99369.94
2022-11-13T04:10:55.216Z,99372.88
2022-11-13T04:13:41.549Z,99370.34
2022-11-13T04:16:30.551Z,99367.28
2022-11-13T04:19:16.495Z,99393.88
2022-11-13T04:22:05.529Z,99404.63
2022-11-13T04:24:54.927Z,99390.41
2022-11-13T04:27:40.732Z,99378.81
2022-11-13T04:30:26.472Z,99387.38
2022-11-13T04:33:12.904Z,99390.72
2022-11-13T04:35:58.787Z,99384.13
2022-11-13T04:38:47.479Z,99379.53
2022-11-13T04:44:45.815Z,99384.66
2022-11-13T04:47:35.470Z,99386.59
2022-11-13T04:50:21.418Z,99423.78
2022-11-13T04:53:07.121Z,99405.75
2022-11-13T04:55:53.883Z,99434.84
2022-11-13T04:58:40.684Z,99422.09
2022-11-13T05:01:30.246Z,99431.94
2022-11-13T05:04:16.968Z,99439.84
2022-11-13T05:07:02.843Z,99444.87
2022-11-13T05:09:49.083Z,99432.59
2022-11-13T05:12:35.285Z,99419.88
2022-11-13T05:15:21.128Z,99424.09
2022-11-13T05:18:07.428Z,99414.87
2022-11-13T05:20:53.381Z,99420.53
2022-11-13T05:23:39.443Z,99402.69
2022-11-13T05:26:26.711Z,99407.72
2022-11-13T05:29:12.999Z,99409.69
2022-11-13T05:31:59.111Z,99405.75
2022-11-13T05:34:46.166Z,99413.19
2022-11-13T05:37:32.046Z,99412.53
2022-11-13T05:40:18.127Z,99421.28
2022-11-13T05:43:05.089Z,99419.31
2022-11-13T05:45:50.903Z,99419.00
2022-11-13T05:48:37.341Z,99427.22
2022-11-13T05:51:25.017Z,99433.59
2022-11-13T05:54:11.195Z,99433.78
2022-11-13T05:56:57.004Z,99439.03
2022-11-13T05:59:42.935Z,99442.00
2022-11-13T06:02:57.343Z,99439.09
2022-11-13T06:06:11.084Z,99445.91
2022-11-13T06:13:10.412Z,99419.00
2022-11-13T06:16:00.912Z,99408.66
2022-11-13T06:18:47.612Z,99416.00
2022-11-13T06:21:36.308Z,99422.72
2022-11-13T06:24:22.444Z,99422.22
2022-11-13T06:27:08.184Z,99411.72
2022-11-13T06:29:54.639Z,99452.19
2022-11-13T06:32:41.093Z,99470.25
2022-11-13T06:35:27.265Z,99479.25
2022-11-13T06:38:13.253Z,99487.38
2022-11-13T06:40:58.916Z,99491.19
2022-11-13T06:43:45.330Z,99481.59
2022-11-13T06:46:31.853Z,99492.97
2022-11-13T06:49:17.562Z,99491.81
2022-11-13T06:52:07.746Z,99490.19
2022-11-13T06:54:54.069Z,99496.47
2022-11-13T06:57:39.892Z,99507.63
2022-11-13T07:00:33.677Z,99523.13
2022-11-13T07:03:26.766Z,99510.19
2022-11-13T07:06:17.066Z,99510.25
2022-11-13T07:09:03.390Z,99501.19
2022-11-13T07:11:49.554Z,99506.41
2022-11-13T07:14:35.786Z,99523.38
2022-11-13T07:17:22.528Z,99526.03
2022-11-13T07:20:09.246Z,99535.22
2022-11-13T07:22:58.912Z,99542.31
2022-11-13T07:25:45.170Z,99536.09
2022-11-13T07:28:31.594Z,99548.09
2022-11-13T07:31:18.159Z,99557.28
2022-11-13T07:34:04.510Z,99561.06
2022-11-13T07:36:50.313Z,99563.34
2022-11-13T07:39:36.486Z,99583.50
2022-11-13T07:42:22.344Z,99575.75
2022-11-13T07:45:11.834Z,99598.59
2022-11-13T07:47:58.735Z,99578.25
2022-11-13T07:50:44.858Z,99595.25
2022-11-13T07:53:31.269Z,99593.38
2022-11-13T07:56:22.927Z,99608.31
2022-11-13T07:59:10.635Z,99589.69
2022-11-13T08:01:56.397Z,99613.72
2022-11-13T08:04:42.249Z,99623.47
2022-11-13T08:10:33.920Z,99626.00
2022-11-13T08:13:20.118Z,99621.63
2022-11-13T08:16:13.548Z,99625.16
2022-11-13T08:19:03.099Z,99634.84
2022-11-13T08:21:49.057Z,99624.72
2022-11-13T08:24:35.231Z,99636.53
2022-11-13T08:27:22.143Z,99643.22
2022-11-13T08:30:08.792Z,99643.63
2022-11-13T08:32:54.686Z,99636.28
2022-11-13T08:35:41.038Z,99634.66
2022-11-13T08:38:27.121Z,99630.91
2022-11-13T08:41:13.375Z,99639.16
2022-11-13T08:43:59.375Z,99643.66
2022-11-13T08:46:45.176Z,99642.00
2022-11-13T08:49:31.331Z,99644.06
2022-11-13T08:52:20.699Z,99640.31
2022-11-13T08:55:06.963Z,99654.00
2022-11-13T08:57:52.960Z,99661.84
2022-11-13T09:00:39.460Z,99644.94
2022-11-13T09:03:25.564Z,99653.69
2022-11-13T09:06:11.527Z,99662.06
2022-11-13T09:08:57.275Z,99657.87
2022-11-13T09:11:43.374Z,99674.81
2022-11-13T09:14:29.202Z,99675.88
2022-11-13T09:17:15.350Z,99670.00
2022-11-13T09:20:04.255Z,99675.34
2022-11-13T09:22:56.520Z,99676.47
2022-11-13T09:25:42.881Z,99682.44
2022-11-13T09:28:28.806Z,99694.97
2022-11-13T09:31:15.557Z,99684.12
2022-11-13T09:34:01.682Z,99675.56
2022-11-13T09:36:47.431Z,99707.97
2022-11-13T09:39:33.415Z,99698.00
2022-11-13T09:42:25.860Z,99705.13
2022-11-13T09:45:14.207Z,99701.59
2022-11-13T09:48:19.691Z,99699.69
2022-11-13T09:51:11.066Z,99706.09
2022-11-13T09:53:58.181Z,99700.53
2022-11-13T09:56:47.335Z,99703.66
2022-11-13T09:59:48.226Z,99714.66
2022-11-13T10:02:46.263Z,99714.09
2022-11-13T10:05:38.363Z,99716.25
2022-11-13T10:08:27.848Z,99730.16
2022-11-13T10:11:32.901Z,99727.44
2022-11-13T10:14:21.317Z,99728.56
2022-11-13T10:17:07.263Z,99726.87
2022-11-13T10:20:05.334Z,99723.94
2022-11-13T10:22:52.446Z,99727.69
2022-11-13T10:25:38.832Z,99747.03
2022-11-13T10:31:51.308Z,99751.03
2022-11-13T10:34:37.200Z,99747.72
2022-11-13T10:37:26.158Z,99743.78
2022-11-13T10:40:12.302Z,99751.13
2022-11-13T10:43:05.747Z,99742.81
2022-11-13T10:46:00.104Z,99756.00
2022-11-13T10:48:45.945Z,99755.94
2022-11-13T10:51:35.599Z,99756.69
2022-11-13T10:54:32.416Z,99766.41
2022-11-13T10:57:33.524Z,99773.94
2022-11-13T11:00:25.961Z,99772.44
2022-11-13T11:03:15.274Z,99777.66
2022-11-13T11:06:02.942Z,99783.19
2022-11-13T11:08:49.378Z,99784.16
2022-11-13T11:11:53.920Z,99789.63
2022-11-13T11:15:00.249Z,99793.63
2022-11-13T11:17:48.957Z,99796.34
2022-11-13T11:20:47.451Z,99796.91
2022-11-13T11:23:36.141Z,99806.59
2022-11-13T11:26:24.505Z,99804.25
2022-11-13T11:29:25.904Z,99808.63
2022-11-13T11:32:11.854Z,99806.59
2022-11-13T11:35:05.056Z,99805.91
2022-11-13T11:38:04.500Z,99824.19
2022-11-13T11:40:53.146Z,99813.56
2022-11-13T11:43:38.816Z,99811.59
2022-11-13T11:46:25.134Z,99836.59
2022-11-13T11:49:14.189Z,99832.41
2022-11-13T11:52:06.362Z,99836.78
2022-11-13T11:55:01.584Z,99853.09
2022-11-13T11:57:56.973Z,99851.31
2022-11-13T12:00:49.951Z,99868.56
2022-11-13T12:03:55.300Z,99863.78
2022-11-13T12:06:43.145Z,99869.47
2022-11-13T12:09:30.974Z,99872.69
2022-11-13T12:12:25.471Z,99877.00
2022-11-13T12:15:18.890Z,99882.97
2022-11-13T12:18:11.563Z,99881.50
2022-11-13T12:21:16.332Z,99875.34
2022-11-13T12:24:20.955Z,99891.38
2022-11-13T12:30:53.753Z,99900.88
2022-11-13T12:33:47.112Z,99886.97
2022-11-13T12:36:33.468Z,99905.88
2022-11-13T12:39:38.181Z,99915.75
2022-11-13T12:43:03.070Z,99913.69
2022-11-13T12:45:56.736Z,99916.87
2022-11-13T12:48:46.554Z,99911.19
2022-11-13T12:51:42.060Z,99933.16
2022-11-13T12:54:35.362Z,99926.28
2022-11-13T12:57:30.094Z,99932.97
2022-11-13T13:00:25.730Z,99940.13
2022-11-13T13:03:24.119Z,99946.38
2022-11-13T13:06:21.096Z,99941.06
2022-11-13T13:09:17.264Z,99939.56
2022-11-13T13:12:22.154Z,99946.09
2022-11-13T13:15:13.196Z,99976.97
2022-11-13T13:18:13.669Z,99977.87
2022-11-13T13:21:01.225Z,99978.13
2022-11-13T13:23:52.277Z,99982.31
2022-11-13T13:26:46.258Z,99992.09
2022-11-13T13:32:37.976Z,99982.03
2022-11-13T13:35:47.121Z,99991.00
2022-11-13T13:38:36.326Z,100000.19
2022-11-13T13:41:25.258Z,100003.56
2022-11-13T13:44:16.806Z,99999.50
2022-11-13T13:47:07.398Z,99999.19
2022-11-13T13:49:53.473Z,99998.41
2022-11-13T13:52:43.578Z,100005.72
2022-11-13T13:55:33.623Z,100015.12
2022-11-13T13:58:23.550Z,100015.50
2022-11-13T14:01:18.804Z,100016.97
2022-11-13T14:04:17.643Z,100025.38
2022-11-13T14:07:03.694Z,100024.69
2022-11-13T14:09:50.302Z,100032.69
2022-11-13T14:12:35.983Z,100038.97
2022-11-13T14:15:32.312Z,100046.47
2022-11-13T14:18:18.774Z,100045.84
2022-11-13T14:21:13.118Z,100047.28
2022-11-13T14:24:01.800Z,100050.25
2022-11-13T14:26:48.320Z,100063.87
2022-11-13T14:29:36.627Z,100054.37
2022-11-13T14:32:30.845Z,100067.56
2022-11-13T14:35:21.882Z,100068.91
2022-11-13T14:38:19.793Z,100077.66
2022-11-13T14:41:06.305Z,100091.78
2022-11-13T14:43:55.697Z,100105.53
2022-11-13T14:46:44.858Z,100102.97
2022-11-13T14:49:35.635Z,100097.13
2022-11-13T14:52:22.611Z,100099.25
2022-11-13T14:55:21.490Z,100104.16
2022-11-13T14:58:07.247Z,100100.50
2022-11-13T15:00:53.558Z,100108.94
2022-11-13T15:03:46.283Z,100113.62
2022-11-13T15:06:41.826Z,100118.03
2022-11-13T15:09:28.528Z,100125.31
2022-11-13T15:12:14.621Z,100126.72
2022-11-13T15:15:00.630Z,100125.41
2022-11-13T15:17:47.199Z,100129.19
2022-11-13T15:20:33.295Z,100121.16
2022-11-13T15:23:19.329Z,100135.37
2022-11-13T15:26:05.300Z,100122.22
2022-11-13T15:28:51.343Z,100127.59
2022-11-13T15:31:39.017Z,100131.09
2022-11-13T15:34:25.179Z,100138.00
2022-11-13T15:37:12.237Z,100142.44
2022-11-13T15:39:58.255Z,100154.50
2022-11-13T15:42:44.385Z,100151.38
2022-11-13T15:45:30.785Z,100168.16
2022-11-13T15:48:16.682Z,100178.31
2022-11-13T15:51:03.575Z,100181.25
2022-11-13T15:53:55.886Z,100195.25
2022-11-13T15:56:42.538Z,100202.44
2022-11-13T15:59:28.248Z,100195.88
2022-11-13T16:02:14.559Z,100196.16
2022-11-13T16:05:00.414Z,100200.19
2022-11-13T16:07:47.246Z,100207.22
2022-11-13T16:10:33.407Z,100209.94
2022-11-13T16:13:19.270Z,100201.62
2022-11-13T16:16:10.660Z,100207.53
2022-11-13T16:19:00.552Z,100209.25
2022-11-13T16:21:46.764Z,100205.00
2022-11-13T16:24:32.627Z,100217.66
2022-11-13T16:27:29.714Z,100210.44
2022-11-13T16:30:23.371Z,100215.72
2022-11-13T16:33:09.767Z,100222.31
2022-11-13T16:35:56.137Z,100237.78
2022-11-13T16:38:42.326Z,100231.81
2022-11-13T16:41:28.171Z,100237.06
2022-11-13T16:44:14.386Z,100239.44
2022-11-13T16:47:00.039Z,100237.88
2022-11-13T16:49:45.995Z,100250.37
2022-11-13T16:52:33.090Z,100241.38
2022-11-13T16:55:22.800Z,100248.28
2022-11-13T16:58:16.608Z,100249.56
2022-11-13T17:01:02.641Z,100257.37
2022-11-13T17:03:49.468Z,100252.66
2022-11-13T17:06:36.433Z,100263.28
2022-11-13T17:09:22.313Z,100255.84
2022-11-13T17:12:09.418Z,100263.41
2022-11-13T17:14:55.629Z,100266.19
2022-11-13T17:17:41.350Z,100276.41
2022-11-13T17:20:27.577Z,100272.06
2022-11-13T17:23:16.513Z,100288.22
2022-11-13T17:26:02.970Z,100288.25
2022-11-13T17:28:49.043Z,100299.84
2022-11-13T17:31:35.623Z,100295.25
2022-11-13T17:34:21.381Z,100290.16
2022-11-13T17:37:07.473Z,100293.88
2022-11-13T17:39:53.752Z,100287.22
2022-11-13T17:42:41.134Z,100300.16
2022-11-13T17:45:30.184Z,100294.37
2022-11-13T17:48:16.094Z,100296.72
2022-11-13T17:51:03.063Z,100300.75
2022-11-13T17:53:48.961Z,100302.19
2022-11-13T17:56:37.966Z,100291.41
2022-11-13T17:59:23.631Z,100299.78
2022-11-13T18:02:11.868Z,100311.41
2022-11-13T18:04:59.526Z,100308.81
2022-11-13T18:07:46.472Z,100304.41
2022-11-13T18:10:33.567Z,100307.47
2022-11-13T18:13:19.547Z,100316.22
2022-11-13T18:16:09.632Z,100310.31
2022-11-13T18:18:56.259Z,100318.81
2022-11-13T18:21:42.608Z,100317.78
2022-11-13T18:24:28.777Z,100324.69
2022-11-13T18:27:17.974Z,100336.31
2022-11-13T18:30:04.038Z,100334.12
2022-11-13T18:32:50.716Z,100334.00
2022-11-13T18:35:36.642Z,100328.69
2022-11-13T18:38:22.630Z,100340.44
2022-11-13T18:41:09.965Z,100339.78
2022-11-13T18:45:05.934Z,100333.91
2022-11-13T18:47:55.929Z,100337.19
2022-11-13T18:50:41.815Z,100338.59
2022-11-13T18:56:32.947Z,100347.94
2022-11-13T18:59:20.343Z,100342.75
2022-11-13T19:02:06.486Z,100348.50
2022-11-13T19:04:53.159Z,100344.69
2022-11-13T19:07:39.146Z,100348.94
2022-11-13T19:10:25.524Z,100352.28
2022-11-13T19:13:11.632Z,100349.56
2022-11-13T19:15:57.776Z,100347.44
2022-11-13T19:18:50.267Z,100350.62
2022-11-13T19:21:37.004Z,100359.41
2022-11-13T19:24:23.272Z,100371.06
2022-11-13T19:27:09.364Z,100367.22
2022-11-13T19:29:55.413Z,100378.91
2022-11-13T19:32:41.607Z,100367.88
2022-11-13T19:35:27.799Z,100369.66
2022-11-13T19:38:13.870Z,100375.22
2022-11-13T19:41:00.116Z,100373.75
2022-11-13T19:43:46.396Z,100378.25
2022-11-13T19:46:34.364Z,100373.88
2022-11-13T19:49:20.343Z,100382.81
2022-11-13T19:52:07.384Z,100375.38
2022-11-13T19:54:53.875Z,100382.09
2022-11-13T19:57:45.075Z,100360.16
2022-11-13T20:00:32.411Z,100374.94
2022-11-13T20:03:23.122Z,100381.66
2022-11-13T20:06:11.891Z,100383.63
2022-11-13T20:08:59.503Z,100381.53
2022-11-13T20:11:46.143Z,100394.91
2022-11-13T20:14:37.147Z,100394.03
2022-11-13T20:17:25.013Z,100381.34
2022-11-13T20:20:11.636Z,100396.78
2022-11-13T20:22:58.622Z,100408.81
2022-11-13T20:25:55.873Z,100411.06
2022-11-13T20:28:42.095Z,100412.38
2022-11-13T20:31:28.371Z,100416.16
2022-11-13T20:34:15.143Z,100413.03
2022-11-13T20:37:04.445Z,100414.25
2022-11-13T20:39:50.379Z,100412.88
2022-11-13T20:42:36.304Z,100419.19
2022-11-13T20:45:22.773Z,100420.03
2022-11-13T20:48:08.889Z,100426.28
2022-11-13T20:50:55.211Z,100418.06
2022-11-13T20:56:31.851Z,100415.91
2022-11-13T20:59:17.847Z,100421.22
2022-11-13T21:02:07.618Z,100432.19
2022-11-13T21:04:57.059Z,100444.28
2022-11-13T21:07:43.184Z,100432.03
2022-11-13T21:10:29.246Z,100432.28
2022-11-13T21:13:19.171Z,100428.94
2022-11-13T21:16:07.704Z,100440.91
2022-11-13T21:18:58.016Z,100430.88
2022-11-13T21:21:44.421Z,100433.91
2022-11-13T21:24:30.495Z,100439.94
2022-11-13T21:27:17.513Z,100457.25
2022-11-13T21:30:04.694Z,100450.47
2022-11-13T21:32:50.908Z,100453.94
2022-11-13T21:35:37.136Z,100454.53
2022-11-13T21:38:26.314Z,100460.84
2022-11-13T21:41:27.308Z,100456.28
2022-11-13T21:44:13.362Z,100446.72
2022-11-13T21:46:59.253Z,100456.19
2022-11-13T21:49:45.399Z,100450.37
2022-11-13T21:52:31.946Z,100463.81
2022-11-13T21:55:17.904Z,100457.00
2022-11-13T21:58:04.237Z,100444.06
2022-11-13T22:03:54.084Z,100479.44
2022-11-13T22:06:40.470Z,100474.94
2022-11-13T22:09:26.910Z,100479.34
2022-11-13T22:12:13.515Z,100482.75
2022-11-13T22:14:59.737Z,100483.66
2022-11-13T22:17:45.740Z,100480.72
2022-11-13T22:20:31.750Z,100486.41
2022-11-13T22:23:17.890Z,100490.94
2022-11-13T22:26:16.214Z,100491.56
2022-11-13T22:29:02.506Z,100473.78
2022-11-13T22:31:49.147Z,100489.34
2022-11-13T22:34:35.364Z,100502.69
2022-11-13T22:37:21.429Z,100509.50
2022-11-13T22:40:10.877Z,100505.03
2022-11-13T22:43:00.260Z,100505.25
2022-11-13T22:45:46.718Z,100498.84
2022-11-13T22:48:33.220Z,100498.25
2022-11-13T22:51:24.244Z,100509.47
2022-11-13T22:54:12.132Z,100503.31
2022-11-13T22:57:01.487Z,100511.19
2022-11-13T22:59:47.631Z,100500.94
2022-11-13T23:02:37.205Z,100504.53
2022-11-13T23:05:23.393Z,100510.50
2022-11-13T23:08:09.675Z,100508.72
2022-11-13T23:10:57.385Z,100499.34
2022-11-13T23:13:48.298Z,100499.50
2022-11-13T23:16:35.160Z,100507.06
2022-11-13T23:19:21.584Z,100503.66
2022-11-13T23:22:08.218Z,100510.59
2022-11-13T23:24:54.409Z,100515.44
2022-11-13T23:27:40.723Z,100514.84
2022-11-13T23:30:26.994Z,100512.22
2022-11-13T23:33:13.410Z,100514.97
2022-11-13T23:36:00.418Z,100517.38
2022-11-13T23:38:47.027Z,100520.25
2022-11-13T23:41:33.002Z,100530.72
2022-11-13T23:44:19.434Z,100543.91
2022-11-13T23:47:05.953Z,100568.41
2022-11-13T23:49:52.362Z,100555.22
2022-11-13T23:52:41.642Z,100553.94
2022-11-13T23:55:28.138Z,100549.44
2022-11-13T23:58:16.069Z,100557.53
